createdAt,value
2022-07-29T00:01:19.731Z,12.82
2022-07-29T00:03:48.758Z,14.68
2022-07-29T00:06:18.091Z,13.10
2022-07-29T00:08:50.691Z,16.65
2022-07-29T00:11:18.817Z,13.82
2022-07-29T00:13:50.905Z,16.33
2022-07-29T00:16:20.187Z,18.45
2022-07-29T00:18:48.389Z,14.15
2022-07-29T00:21:16.786Z,13.32
2022-07-29T00:23:45.390Z,13.77
2022-07-29T00:26:32.322Z,13.75
2022-07-29T00:29:32.543Z,14.05
2022-07-29T00:31:51.754Z,13.27
2022-07-29T00:34:39.486Z,14.13
2022-07-29T00:37:08.159Z,13.15
2022-07-29T00:39:36.840Z,15.48
2022-07-29T00:42:08.475Z,17.73
2022-07-29T00:44:41.000Z,12.40
2022-07-29T00:47:11.364Z,13.32
2022-07-29T00:49:43.871Z,14.73
2022-07-29T00:52:13.142Z,14.32
2022-07-29T00:54:45.569Z,13.40
2022-07-29T00:57:14.467Z,13.77
2022-07-29T00:59:42.866Z,17.77
2022-07-29T01:02:11.733Z,14.77
2022-07-29T01:04:40.769Z,15.50
2022-07-29T01:07:09.172Z,14.38
2022-07-29T01:09:45.761Z,15.85
2022-07-29T01:12:19.686Z,15.32
2022-07-29T01:14:50.137Z,13.55
2022-07-29T01:17:35.257Z,14.10
2022-07-29T01:20:21.401Z,15.05
2022-07-29T01:22:55.595Z,13.00
2022-07-29T01:25:45.570Z,12.93
2022-07-29T01:28:35.796Z,15.27
2022-07-29T01:31:06.437Z,15.27
2022-07-29T01:33:52.201Z,12.45
2022-07-29T01:36:27.182Z,13.27
2022-07-29T01:39:21.261Z,14.68
2022-07-29T01:41:58.288Z,14.23
2022-07-29T01:44:35.805Z,13.35
2022-07-29T01:47:14.049Z,11.40
2022-07-29T01:49:49.230Z,16.23
2022-07-29T01:52:37.961Z,13.32
2022-07-29T01:55:16.455Z,13.98
2022-07-29T01:57:49.047Z,10.68
2022-07-29T02:00:18.209Z,11.85
2022-07-29T02:02:49.737Z,9.63
2022-07-29T02:05:22.999Z,12.43
2022-07-29T02:07:54.256Z,10.73
2022-07-29T02:10:26.034Z,11.13
2022-07-29T02:12:57.867Z,12.05
2022-07-29T02:15:28.599Z,13.32
2022-07-29T02:18:04.979Z,10.68
2022-07-29T02:20:33.727Z,11.13
2022-07-29T02:23:05.054Z,12.40
2022-07-29T02:25:36.915Z,13.75
2022-07-29T02:28:08.001Z,12.13
2022-07-29T02:30:43.740Z,11.20
2022-07-29T02:33:15.998Z,10.18
2022-07-29T02:35:47.670Z,14.27
2022-07-29T02:38:36.577Z,11.95
2022-07-29T02:41:13.012Z,10.75
2022-07-29T02:43:44.672Z,15.60
2022-07-29T02:46:28.386Z,11.43
2022-07-29T02:49:02.400Z,12.88
2022-07-29T02:51:45.363Z,10.50
2022-07-29T02:54:47.949Z,8.85
2022-07-29T02:57:23.475Z,13.18
2022-07-29T02:59:58.426Z,12.25
2022-07-29T03:02:30.061Z,11.88
2022-07-29T03:05:02.236Z,9.48
2022-07-29T03:07:33.268Z,9.80
2022-07-29T03:10:02.543Z,11.80
2022-07-29T03:12:32.654Z,9.75
2022-07-29T03:15:03.493Z,9.43
2022-07-29T03:17:33.305Z,9.60
2022-07-29T03:20:02.694Z,11.95
2022-07-29T03:22:32.226Z,7.25
2022-07-29T03:25:10.138Z,6.85
2022-07-29T03:27:38.851Z,10.98
2022-07-29T03:30:09.395Z,8.13
2022-07-29T03:32:38.621Z,11.40
2022-07-29T03:35:09.034Z,6.53
2022-07-29T03:37:37.847Z,8.77
2022-07-29T03:40:10.162Z,8.57
2022-07-29T03:42:43.525Z,7.15
2022-07-29T03:45:15.505Z,6.78
2022-07-29T03:47:49.993Z,8.95
2022-07-29T03:50:22.284Z,8.90
2022-07-29T03:52:51.398Z,9.85
2022-07-29T03:55:19.778Z,10.30
2022-07-29T03:57:48.977Z,10.50
2022-07-29T04:00:18.055Z,7.68
2022-07-29T04:02:50.078Z,9.02
2022-07-29T04:05:19.704Z,8.43
2022-07-29T04:07:49.344Z,6.53
2022-07-29T04:10:31.541Z,10.23
2022-07-29T04:13:01.200Z,5.05
2022-07-29T04:15:31.132Z,6.03
2022-07-29T04:18:00.706Z,5.93
2022-07-29T04:20:29.577Z,6.28
2022-07-29T04:22:57.763Z,7.57
2022-07-29T04:25:26.153Z,7.78
2022-07-29T04:28:03.685Z,10.85
2022-07-29T04:30:33.193Z,9.95
2022-07-29T04:33:07.125Z,10.10
2022-07-29T04:35:38.654Z,6.07
2022-07-29T04:38:15.706Z,6.70
2022-07-29T04:40:45.176Z,8.52
2022-07-29T04:43:14.249Z,8.10
2022-07-29T04:45:44.433Z,8.57
2022-07-29T04:48:13.121Z,9.98
2022-07-29T04:50:42.383Z,10.93
2022-07-29T04:53:11.094Z,6.93
2022-07-29T04:55:39.361Z,8.43
2022-07-29T04:58:08.745Z,8.13
2022-07-29T05:00:37.532Z,11.35
2022-07-29T05:03:05.905Z,5.03
2022-07-29T05:05:34.144Z,7.90
2022-07-29T05:08:02.941Z,7.00
2022-07-29T05:10:31.075Z,7.20
2022-07-29T05:12:59.363Z,9.45
2022-07-29T05:15:28.077Z,8.73
2022-07-29T05:17:56.277Z,7.88
2022-07-29T05:20:29.460Z,7.32
2022-07-29T05:22:59.687Z,10.68
2022-07-29T05:25:43.521Z,10.32
2022-07-29T05:28:13.544Z,9.13
2022-07-29T05:30:42.213Z,9.60
2022-07-29T05:33:35.124Z,10.68
2022-07-29T05:36:00.754Z,7.90
2022-07-29T05:38:30.267Z,7.70
2022-07-29T05:41:00.147Z,8.45
2022-07-29T05:43:30.036Z,9.93
2022-07-29T05:45:59.091Z,6.43
2022-07-29T05:48:27.501Z,7.72
2022-07-29T05:50:56.346Z,7.03
2022-07-29T05:53:25.947Z,6.40
2022-07-29T05:58:23.246Z,8.10
2022-07-29T06:00:52.094Z,7.47
2022-07-29T06:03:20.158Z,7.25
2022-07-29T06:05:49.093Z,8.02
2022-07-29T06:08:18.467Z,10.38
2022-07-29T06:10:47.158Z,9.70
2022-07-29T06:13:17.283Z,6.30
2022-07-29T06:15:45.817Z,8.27
2022-07-29T06:18:14.691Z,9.25
2022-07-29T06:20:43.803Z,6.85
2022-07-29T06:23:12.222Z,8.77
2022-07-29T06:25:42.098Z,9.20
2022-07-29T06:28:10.564Z,8.02
2022-07-29T06:30:39.557Z,9.98
2022-07-29T06:33:07.712Z,6.88
2022-07-29T06:35:38.313Z,9.85
2022-07-29T06:38:30.001Z,6.15
2022-07-29T06:41:09.062Z,6.68
2022-07-29T06:43:50.464Z,9.80
2022-07-29T06:46:21.484Z,10.50
2022-07-29T06:48:50.523Z,10.73
2022-07-29T06:51:22.651Z,9.48
2022-07-29T06:54:01.744Z,12.55
2022-07-29T06:56:38.992Z,7.15
2022-07-29T06:59:12.715Z,9.32
2022-07-29T07:01:44.809Z,8.13
2022-07-29T07:04:15.326Z,9.77
2022-07-29T07:06:44.156Z,8.40
2022-07-29T07:09:12.489Z,6.50
2022-07-29T07:11:41.778Z,7.55
2022-07-29T07:14:09.892Z,9.13
2022-07-29T07:16:38.797Z,9.65
2022-07-29T07:19:07.198Z,5.68
2022-07-29T07:21:35.270Z,7.25
2022-07-29T07:24:04.362Z,7.47
2022-07-29T07:26:32.749Z,6.65
2022-07-29T07:29:01.687Z,6.93
2022-07-29T07:31:30.225Z,6.55
2022-07-29T07:33:58.757Z,8.13
2022-07-29T07:36:27.072Z,8.85
2022-07-29T07:38:55.104Z,10.60
2022-07-29T07:41:25.122Z,5.75
2022-07-29T07:43:53.291Z,7.20
2022-07-29T07:46:22.534Z,9.77
2022-07-29T07:48:51.233Z,8.85
2022-07-29T07:51:56.584Z,5.80
2022-07-29T07:58:36.772Z,7.13
2022-07-29T08:01:05.429Z,6.53
2022-07-29T08:03:34.792Z,7.78
2022-07-29T08:06:05.304Z,16.80
2022-07-29T08:08:33.775Z,7.28
2022-07-29T08:11:08.559Z,9.90
2022-07-29T08:13:39.213Z,8.80
2022-07-29T08:16:16.460Z,7.80
2022-07-29T08:18:46.454Z,8.85
2022-07-29T08:21:16.224Z,7.45
2022-07-29T08:23:52.998Z,6.20
2022-07-29T08:26:26.755Z,7.28
2022-07-29T08:28:54.911Z,9.40
2022-07-29T08:31:23.005Z,11.18
2022-07-29T08:33:54.516Z,9.95
2022-07-29T08:36:22.938Z,10.57
2022-07-29T08:38:51.005Z,8.38
2022-07-29T08:41:25.001Z,7.53
2022-07-29T08:43:53.816Z,8.15
2022-07-29T08:46:23.848Z,8.48
2022-07-29T08:48:52.277Z,7.97
2022-07-29T08:51:22.687Z,9.23
2022-07-29T08:53:52.236Z,6.63
2022-07-29T08:56:21.072Z,8.23
2022-07-29T08:58:52.109Z,9.40
2022-07-29T09:01:36.289Z,6.75
2022-07-29T09:04:13.298Z,8.20
2022-07-29T09:06:46.748Z,7.85
2022-07-29T09:09:16.205Z,6.38
2022-07-29T09:11:44.722Z,7.50
2022-07-29T09:14:16.939Z,7.07
2022-07-29T09:16:57.802Z,7.82
2022-07-29T09:19:31.634Z,10.30
2022-07-29T09:22:03.357Z,6.35
2022-07-29T09:24:35.756Z,7.13
2022-07-29T09:27:12.867Z,8.23
2022-07-29T09:29:43.676Z,9.45
2022-07-29T09:32:14.976Z,7.88
2022-07-29T09:34:43.601Z,6.55
2022-07-29T09:37:12.928Z,7.82
2022-07-29T09:39:47.836Z,7.72
2022-07-29T09:42:29.785Z,6.60
2022-07-29T09:44:58.630Z,6.18
2022-07-29T09:50:10.195Z,10.43
2022-07-29T09:52:53.175Z,11.95
2022-07-29T09:55:22.240Z,7.95
2022-07-29T10:00:21.316Z,8.48
2022-07-29T10:02:50.430Z,8.77
2022-07-29T10:05:24.299Z,10.02
2022-07-29T10:07:58.134Z,8.90
2022-07-29T10:10:28.875Z,10.82
2022-07-29T10:13:07.968Z,12.35
2022-07-29T10:15:44.632Z,6.90
2022-07-29T10:18:18.709Z,14.60
2022-07-29T10:20:49.640Z,7.47
2022-07-29T10:23:18.367Z,10.00
2022-07-29T10:25:47.560Z,10.40
2022-07-29T10:28:16.698Z,9.80
2022-07-29T10:30:47.395Z,11.35
2022-07-29T10:33:38.134Z,9.13
2022-07-29T10:36:14.317Z,7.25
2022-07-29T10:39:06.111Z,8.10
2022-07-29T10:41:57.884Z,9.75
2022-07-29T10:44:28.722Z,9.07
2022-07-29T10:46:58.156Z,7.53
2022-07-29T10:49:30.701Z,8.90
2022-07-29T10:52:07.173Z,12.18
2022-07-29T10:54:46.647Z,9.25
2022-07-29T10:57:18.540Z,7.65
2022-07-29T11:00:16.824Z,10.57
2022-07-29T11:02:50.380Z,8.88
2022-07-29T11:05:22.539Z,10.63
2022-07-29T11:08:28.114Z,10.25
2022-07-29T11:11:20.243Z,10.13
2022-07-29T11:13:56.944Z,12.00
2022-07-29T11:16:26.992Z,9.50
2022-07-29T11:19:14.844Z,12.82
2022-07-29T11:21:53.977Z,12.65
2022-07-29T11:24:35.373Z,11.80
2022-07-29T11:30:07.195Z,12.55
2022-07-29T11:32:40.878Z,11.02
2022-07-29T11:35:37.411Z,11.18
2022-07-29T11:38:35.998Z,10.18
2022-07-29T11:41:19.248Z,10.35
2022-07-29T11:43:56.330Z,10.13
2022-07-29T11:46:43.359Z,10.65
2022-07-29T11:49:15.357Z,11.20
2022-07-29T11:51:48.127Z,9.48
2022-07-29T11:54:27.332Z,12.40
2022-07-29T11:56:56.874Z,8.85
2022-07-29T12:07:53.792Z,10.05
2022-07-29T12:10:30.412Z,8.93
2022-07-29T12:12:59.242Z,9.80
2022-07-29T12:15:39.185Z,9.73
2022-07-29T12:18:18.597Z,10.80
2022-07-29T12:20:47.654Z,12.13
2022-07-29T12:23:18.890Z,10.80
2022-07-29T12:25:49.833Z,13.05
2022-07-29T12:28:26.853Z,14.52
2022-07-29T12:30:55.783Z,12.18
2022-07-29T12:33:31.244Z,11.57
2022-07-29T12:36:07.561Z,12.68
2022-07-29T12:38:41.626Z,12.98
2022-07-29T12:41:10.150Z,11.07
2022-07-29T12:43:38.164Z,15.60
2022-07-29T12:46:16.470Z,13.80
2022-07-29T12:48:45.217Z,15.13
2022-07-29T12:51:15.664Z,13.73
2022-07-29T12:54:11.905Z,14.63
2022-07-29T12:56:43.167Z,14.93
2022-07-29T12:59:19.916Z,15.30
2022-07-29T13:01:50.774Z,14.07
2022-07-29T13:04:33.524Z,13.57
2022-07-29T13:07:05.083Z,16.75
2022-07-29T13:09:44.266Z,11.95
2022-07-29T13:12:15.402Z,13.60
2022-07-29T13:14:46.693Z,12.75
2022-07-29T13:17:18.412Z,14.10
2022-07-29T13:19:52.638Z,15.93
2022-07-29T13:24:53.687Z,13.57
2022-07-29T13:27:25.989Z,12.73
2022-07-29T13:29:57.820Z,13.82
2022-07-29T13:32:29.081Z,14.73
2022-07-29T13:34:59.472Z,17.35
2022-07-29T13:37:30.939Z,13.80
2022-07-29T13:40:00.506Z,15.02
2022-07-29T13:42:30.563Z,17.25
2022-07-29T13:45:00.617Z,20.33
2022-07-29T13:47:32.186Z,16.30
2022-07-29T13:50:03.328Z,14.55
2022-07-29T13:52:34.691Z,14.20
2022-07-29T13:55:04.726Z,16.60
2022-07-29T13:57:33.569Z,16.10
2022-07-29T14:02:36.946Z,17.70
2022-07-29T14:05:26.442Z,16.98
2022-07-29T14:07:55.093Z,17.70
2022-07-29T14:10:23.465Z,19.83
2022-07-29T14:12:51.648Z,17.05
2022-07-29T14:15:20.546Z,21.13
2022-07-29T14:17:48.706Z,15.93
2022-07-29T14:20:17.189Z,15.60
2022-07-29T14:22:46.015Z,13.80
2022-07-29T14:25:15.422Z,18.30
2022-07-29T14:27:45.425Z,24.60
2022-07-29T14:30:14.484Z,29.77
2022-07-29T14:32:44.102Z,27.88
2022-07-29T14:35:14.079Z,24.55
2022-07-29T14:37:47.784Z,25.20
2022-07-29T14:40:18.646Z,25.70
2022-07-29T14:42:49.204Z,28.33
2022-07-29T14:45:17.868Z,36.58
2022-07-29T14:47:46.016Z,26.25
2022-07-29T14:50:14.990Z,30.55
2022-07-29T14:53:20.506Z,38.13
2022-07-29T14:55:50.725Z,27.83
2022-07-29T14:58:19.784Z,19.52
2022-07-29T15:00:49.496Z,18.83
2022-07-29T15:03:24.095Z,16.90
2022-07-29T15:05:52.826Z,20.75
2022-07-29T15:08:22.884Z,16.75
2022-07-29T15:10:51.884Z,20.20
2022-07-29T15:13:21.307Z,18.40
2022-07-29T15:15:51.401Z,17.63
2022-07-29T15:18:25.671Z,16.38
2022-07-29T15:20:55.115Z,13.63
2022-07-29T15:23:23.563Z,13.25
2022-07-29T15:25:52.124Z,16.42
2022-07-29T15:28:21.871Z,16.60
2022-07-29T15:30:50.290Z,16.00
2022-07-29T15:33:19.849Z,19.35
2022-07-29T15:35:49.061Z,16.23
2022-07-29T15:38:18.090Z,12.63
2022-07-29T15:40:47.801Z,12.43
2022-07-29T15:43:17.128Z,12.80
2022-07-29T15:46:04.336Z,11.32
2022-07-29T15:48:33.415Z,12.05
2022-07-29T15:51:02.000Z,10.43
2022-07-29T15:53:30.641Z,11.18
2022-07-29T15:56:02.875Z,12.15
2022-07-29T15:58:34.397Z,9.88
2022-07-29T16:01:04.331Z,10.90
2022-07-29T16:03:34.513Z,11.40
2022-07-29T16:06:05.488Z,10.35
2022-07-29T16:08:34.937Z,13.48
2022-07-29T16:11:04.864Z,10.95
2022-07-29T16:13:35.143Z,11.02
2022-07-29T16:16:06.408Z,14.50
2022-07-29T16:18:35.800Z,10.07
2022-07-29T16:21:04.983Z,9.93
2022-07-29T16:23:33.682Z,11.95
2022-07-29T16:26:03.196Z,12.77
2022-07-29T16:28:32.779Z,10.57
2022-07-29T16:31:02.493Z,10.20
2022-07-29T16:33:55.551Z,10.77
2022-07-29T16:36:27.069Z,11.27
2022-07-29T16:38:59.130Z,9.85
2022-07-29T16:41:31.723Z,9.95
2022-07-29T16:44:02.547Z,9.57
2022-07-29T16:46:31.336Z,11.93
2022-07-29T16:49:00.082Z,10.20
2022-07-29T16:51:30.903Z,11.93
2022-07-29T16:53:59.741Z,13.32
2022-07-29T16:56:28.568Z,10.30
2022-07-29T16:58:59.576Z,13.50
2022-07-29T17:01:28.775Z,10.95
2022-07-29T17:04:07.905Z,13.88
2022-07-29T17:06:41.652Z,9.88
2022-07-29T17:09:16.144Z,13.95
2022-07-29T17:11:53.135Z,15.65
2022-07-29T17:14:29.130Z,13.57
2022-07-29T17:17:02.828Z,15.63
2022-07-29T17:19:35.760Z,12.07
2022-07-29T17:22:15.459Z,12.55
2022-07-29T17:24:49.187Z,13.40
2022-07-29T17:27:18.556Z,11.20
2022-07-29T17:29:49.408Z,15.00
2022-07-29T17:32:18.101Z,17.08
2022-07-29T17:34:47.031Z,14.00
2022-07-29T17:37:15.436Z,12.32
2022-07-29T17:39:43.869Z,15.43
2022-07-29T17:42:14.752Z,13.57
2022-07-29T17:44:42.933Z,13.25
2022-07-29T17:47:15.837Z,15.13
2022-07-29T17:49:46.012Z,17.40
2022-07-29T17:52:14.451Z,13.98
2022-07-29T17:54:42.702Z,18.48
2022-07-29T17:57:11.706Z,12.15
2022-07-29T17:59:39.888Z,13.68
2022-07-29T18:02:10.306Z,17.10
2022-07-29T18:04:39.284Z,16.98
2022-07-29T18:07:07.582Z,17.45
2022-07-29T18:09:39.259Z,12.77
2022-07-29T18:12:07.980Z,11.98
2022-07-29T18:14:36.109Z,10.48
2022-07-29T18:17:04.747Z,11.75
2022-07-29T18:19:33.960Z,11.98
2022-07-29T18:22:04.967Z,10.80
2022-07-29T18:24:35.329Z,12.85
2022-07-29T18:27:03.845Z,9.05
2022-07-29T18:29:31.846Z,10.55
2022-07-29T18:32:00.212Z,10.63
2022-07-29T18:34:29.689Z,11.00
2022-07-29T18:36:58.229Z,10.48
2022-07-29T18:39:27.078Z,14.10
2022-07-29T18:41:55.472Z,10.40
2022-07-29T18:44:23.929Z,11.85
2022-07-29T18:46:53.631Z,8.63
2022-07-29T18:49:23.308Z,11.55
2022-07-29T18:51:52.681Z,12.80
2022-07-29T18:54:21.374Z,10.48
2022-07-29T18:56:49.936Z,10.13
2022-07-29T18:59:20.615Z,13.02
2022-07-29T19:01:49.837Z,13.60
2022-07-29T19:04:18.277Z,12.60
2022-07-29T19:06:46.822Z,12.88
2022-07-29T19:09:16.554Z,11.25
2022-07-29T19:11:44.902Z,14.30
2022-07-29T19:14:13.251Z,11.50
2022-07-29T19:16:41.947Z,14.90
2022-07-29T19:19:10.844Z,10.60
2022-07-29T19:21:38.903Z,9.05
2022-07-29T19:24:13.610Z,12.43
2022-07-29T19:26:47.123Z,9.25
2022-07-29T19:29:16.465Z,13.55
2022-07-29T19:31:44.818Z,13.88
2022-07-29T19:34:13.359Z,8.60
2022-07-29T19:36:42.353Z,12.63
2022-07-29T19:39:10.970Z,10.88
2022-07-29T19:41:40.114Z,12.60
2022-07-29T19:46:36.909Z,11.48
2022-07-29T19:49:06.892Z,10.45
2022-07-29T19:51:35.881Z,16.88
2022-07-29T19:54:04.667Z,13.18
2022-07-29T19:56:33.406Z,12.88
2022-07-29T19:59:03.093Z,11.25
2022-07-29T20:01:36.712Z,15.35
2022-07-29T20:04:05.526Z,13.25
2022-07-29T20:06:35.157Z,12.85
2022-07-29T20:09:04.612Z,20.48
2022-07-29T20:11:37.181Z,15.25
2022-07-29T20:14:05.909Z,14.40
2022-07-29T20:16:34.474Z,12.55
2022-07-29T20:19:02.959Z,15.70
2022-07-29T20:21:31.823Z,14.45
2022-07-29T20:26:34.174Z,13.98
2022-07-29T20:29:05.629Z,13.32
2022-07-29T20:31:34.346Z,14.93
2022-07-29T20:34:02.984Z,12.30
2022-07-29T20:36:31.819Z,12.07
2022-07-29T20:39:01.404Z,17.70
2022-07-29T20:41:29.562Z,15.57
2022-07-29T20:43:58.384Z,12.13
2022-07-29T20:46:26.701Z,19.30
2022-07-29T20:48:55.237Z,11.00
2022-07-29T20:51:24.036Z,15.88
2022-07-29T20:53:52.236Z,11.68
2022-07-29T20:56:20.454Z,13.68
2022-07-29T20:58:49.886Z,14.93
2022-07-29T21:03:46.211Z,10.85
2022-07-29T21:06:16.317Z,16.58
2022-07-29T21:08:44.667Z,12.25
2022-07-29T21:11:13.057Z,12.20
2022-07-29T21:13:42.377Z,16.60
2022-07-29T21:16:14.747Z,12.02
2022-07-29T21:18:46.823Z,12.48
2022-07-29T21:21:16.793Z,12.10
2022-07-29T21:23:46.599Z,11.02
2022-07-29T21:26:16.266Z,10.75
2022-07-29T21:28:44.478Z,9.88
2022-07-29T21:31:15.034Z,17.02
2022-07-29T21:33:46.142Z,13.65
2022-07-29T21:36:46.456Z,13.10
2022-07-29T21:39:07.402Z,11.82
2022-07-29T21:41:36.426Z,12.52
2022-07-29T21:44:05.437Z,12.70
2022-07-29T21:46:33.483Z,11.40
2022-07-29T21:49:02.450Z,9.45
2022-07-29T21:51:30.367Z,17.10
2022-07-29T21:53:58.673Z,11.90
2022-07-29T21:56:28.005Z,14.27
2022-07-29T21:58:56.624Z,11.13
2022-07-29T22:03:54.231Z,9.55
2022-07-29T22:06:22.892Z,10.65
2022-07-29T22:08:50.769Z,8.80
2022-07-29T22:11:20.272Z,9.77
2022-07-29T22:16:16.550Z,11.43
2022-07-29T22:18:47.263Z,10.30
2022-07-29T22:21:16.182Z,11.27
2022-07-29T22:23:44.122Z,9.45
2022-07-29T22:26:12.677Z,9.25
2022-07-29T22:28:41.164Z,10.73
2022-07-29T22:31:10.426Z,7.53
2022-07-29T22:33:38.906Z,10.23
2022-07-29T22:36:07.731Z,10.10
2022-07-29T22:38:35.824Z,10.80
2022-07-29T22:41:04.257Z,10.48
2022-07-29T22:43:32.405Z,10.43
2022-07-29T22:46:00.758Z,11.73
2022-07-29T22:48:29.504Z,10.00
2022-07-29T22:50:57.579Z,11.88
2022-07-29T22:53:25.844Z,10.38
2022-07-29T22:55:55.447Z,12.75
2022-07-29T22:58:23.683Z,12.45
2022-07-29T23:00:54.280Z,10.15
2022-07-29T23:03:23.668Z,10.43
2022-07-29T23:05:52.209Z,13.23
2022-07-29T23:08:21.251Z,10.98
2022-07-29T23:10:50.086Z,11.02
2022-07-29T23:13:18.288Z,8.20
2022-07-29T23:15:46.709Z,12.40
2022-07-29T23:18:15.532Z,8.43
2022-07-29T23:20:45.914Z,9.77
2022-07-29T23:23:15.000Z,10.73
2022-07-29T23:25:43.522Z,12.93
2022-07-29T23:28:13.299Z,12.00
2022-07-29T23:30:42.847Z,13.10
2022-07-29T23:33:11.537Z,12.68
2022-07-29T23:35:39.832Z,13.40
2022-07-29T23:38:08.258Z,15.80
2022-07-29T23:40:36.925Z,14.18
2022-07-29T23:43:08.459Z,14.07
2022-07-29T23:45:42.781Z,15.70
2022-07-29T23:48:14.927Z,16.15
2022-07-29T23:50:43.733Z,14.63
2022-07-29T23:53:12.538Z,14.15
2022-07-29T23:55:40.729Z,19.88
2022-07-29T23:58:10.029Z,14.95
